sensor_id;sensor_type;location;lat;lon;timestamp;temperature;humidity
13673;DHT22;6909;52.202;9.876;2023-04-03T00:03:05;1.10;1.00
13673;DHT22;6909;52.202;9.876;2023-04-03T00:09:56;1.20;1.00
13673;DHT22;6909;52.202;9.876;2023-04-03T00:16:10;1.10;1.00
13673;DHT22;6909;52.202;9.876;2023-04-03T00:21:58;1.00;1.00
13673;DHT22;6909;52.202;9.876;2023-04-03T00:24:50;0.90;1.00
13673;DHT22;6909;52.202;9.876;2023-04-03T00:27:24;0.90;1.00
13673;DHT22;6909;52.202;9.876;2023-04-03T00:30:22;0.90;1.00
13673;DHT22;6909;52.202;9.876;2023-04-03T00:32:49;0.80;1.00
13673;DHT22;6909;52.202;9.876;2023-04-03T00:35:17;0.70;1.00
13673;DHT22;6909;52.202;9.876;2023-04-03T00:37:46;0.60;1.00
13673;DHT22;6909;52.202;9.876;2023-04-03T00:40:14;0.50;1.00
13673;DHT22;6909;52.202;9.876;2023-04-03T00:42:43;0.50;1.00
13673;DHT22;6909;52.202;9.876;2023-04-03T00:45:27;0.50;1.00
13673;DHT22;6909;52.202;9.876;2023-04-03T00:47:56;0.40;1.00
13673;DHT22;6909;52.202;9.876;2023-04-03T00:50:25;0.40;1.00
13673;DHT22;6909;52.202;9.876;2023-04-03T00:52:53;0.40;1.00
13673;DHT22;6909;52.202;9.876;2023-04-03T00:55:20;0.40;1.00
13673;DHT22;6909;52.202;9.876;2023-04-03T00:57:47;0.30;1.00
13673;DHT22;6909;52.202;9.876;2023-04-03T01:00:19;0.20;1.00
13673;DHT22;6909;52.202;9.876;2023-04-03T01:02:47;0.10;1.00
13673;DHT22;6909;52.202;9.876;2023-04-03T01:05:15;0.00;1.00
13673;DHT22;6909;52.202;9.876;2023-04-03T01:07:42;0.00;1.00
13673;DHT22;6909;52.202;9.876;2023-04-03T01:10:14;-0.10;1.00
13673;DHT22;6909;52.202;9.876;2023-04-03T01:12:43;-0.10;1.00
13673;DHT22;6909;52.202;9.876;2023-04-03T01:15:13;-0.10;1.00
13673;DHT22;6909;52.202;9.876;2023-04-03T01:17:41;-0.20;1.00
13673;DHT22;6909;52.202;9.876;2023-04-03T01:23:25;-0.10;1.00
13673;DHT22;6909;52.202;9.876;2023-04-03T01:25:55;-0.10;1.00
13673;DHT22;6909;52.202;9.876;2023-04-03T01:28:24;0.00;1.00
13673;DHT22;6909;52.202;9.876;2023-04-03T01:30:59;0.10;1.00
13673;DHT22;6909;52.202;9.876;2023-04-03T01:33:28;0.00;1.00
13673;DHT22;6909;52.202;9.876;2023-04-03T01:35:55;0.00;1.00
13673;DHT22;6909;52.202;9.876;2023-04-03T01:38:22;0.00;1.00
13673;DHT22;6909;52.202;9.876;2023-04-03T01:40:48;0.00;1.00
13673;DHT22;6909;52.202;9.876;2023-04-03T01:43:15;-0.10;1.00
13673;DHT22;6909;52.202;9.876;2023-04-03T01:45:42;-0.20;1.00
13673;DHT22;6909;52.202;9.876;2023-04-03T01:48:08;-0.20;1.00
13673;DHT22;6909;52.202;9.876;2023-04-03T01:50:36;-0.30;1.00
13673;DHT22;6909;52.202;9.876;2023-04-03T01:53:03;-0.30;26.40
13673;DHT22;6909;52.202;9.876;2023-04-03T01:55:30;-0.30;33.80
13673;DHT22;6909;52.202;9.876;2023-04-03T01:57:56;-0.30;53.20
13673;DHT22;6909;52.202;9.876;2023-04-03T02:00:23;-0.30;66.40
13673;DHT22;6909;52.202;9.876;2023-04-03T02:02:50;-0.40;83.40
13673;DHT22;6909;52.202;9.876;2023-04-03T02:05:16;-0.30;99.90
13673;DHT22;6909;52.202;9.876;2023-04-03T02:07:45;-0.30;99.90
13673;DHT22;6909;52.202;9.876;2023-04-03T02:10:12;-0.30;99.90
13673;DHT22;6909;52.202;9.876;2023-04-03T02:12:39;-0.40;99.90
13673;DHT22;6909;52.202;9.876;2023-04-03T02:15:07;-0.40;99.90
13673;DHT22;6909;52.202;9.876;2023-04-03T02:17:35;-0.30;99.90
13673;DHT22;6909;52.202;9.876;2023-04-03T02:20:02;-0.40;99.90
13673;DHT22;6909;52.202;9.876;2023-04-03T02:22:29;-0.40;99.90
13673;DHT22;6909;52.202;9.876;2023-04-03T02:24:57;-0.40;99.90
13673;DHT22;6909;52.202;9.876;2023-04-03T02:27:24;-0.40;99.90
13673;DHT22;6909;52.202;9.876;2023-04-03T02:29:54;-0.50;99.90
13673;DHT22;6909;52.202;9.876;2023-04-03T02:32:20;-0.50;99.90
13673;DHT22;6909;52.202;9.876;2023-04-03T02:34:47;-0.50;99.90
13673;DHT22;6909;52.202;9.876;2023-04-03T02:37:13;-0.50;99.90
13673;DHT22;6909;52.202;9.876;2023-04-03T02:39:40;-0.50;99.90
13673;DHT22;6909;52.202;9.876;2023-04-03T02:42:08;-0.50;99.90
13673;DHT22;6909;52.202;9.876;2023-04-03T02:44:35;-0.40;99.90
13673;DHT22;6909;52.202;9.876;2023-04-03T02:47:02;-0.50;99.90
13673;DHT22;6909;52.202;9.876;2023-04-03T02:49:29;-0.50;99.90
13673;DHT22;6909;52.202;9.876;2023-04-03T02:51:55;-0.50;99.90
13673;DHT22;6909;52.202;9.876;2023-04-03T02:54:22;-0.60;99.90
13673;DHT22;6909;52.202;9.876;2023-04-03T02:56:53;-0.60;99.90
13673;DHT22;6909;52.202;9.876;2023-04-03T02:59:21;-0.60;99.90
13673;DHT22;6909;52.202;9.876;2023-04-03T03:01:48;-0.60;1.00
13673;DHT22;6909;52.202;9.876;2023-04-03T03:04:14;-0.60;99.90
13673;DHT22;6909;52.202;9.876;2023-04-03T03:06:41;-0.60;1.00
13673;DHT22;6909;52.202;9.876;2023-04-03T03:09:08;-0.60;1.00
13673;DHT22;6909;52.202;9.876;2023-04-03T03:11:35;-0.60;1.00
13673;DHT22;6909;52.202;9.876;2023-04-03T03:14:01;-0.60;1.00
13673;DHT22;6909;52.202;9.876;2023-04-03T03:16:29;-0.70;1.00
13673;DHT22;6909;52.202;9.876;2023-04-03T03:18:56;-0.70;1.00
13673;DHT22;6909;52.202;9.876;2023-04-03T03:21:23;-0.70;1.00
13673;DHT22;6909;52.202;9.876;2023-04-03T03:23:49;-0.70;1.00
13673;DHT22;6909;52.202;9.876;2023-04-03T03:26:16;-0.80;1.00
13673;DHT22;6909;52.202;9.876;2023-04-03T03:28:43;-0.70;1.00
13673;DHT22;6909;52.202;9.876;2023-04-03T03:31:10;-0.80;1.00
13673;DHT22;6909;52.202;9.876;2023-04-03T03:33:38;-0.80;1.00
13673;DHT22;6909;52.202;9.876;2023-04-03T03:36:06;-0.90;1.00
13673;DHT22;6909;52.202;9.876;2023-04-03T03:38:33;-0.90;1.00
13673;DHT22;6909;52.202;9.876;2023-04-03T03:40:59;-1.00;1.00
13673;DHT22;6909;52.202;9.876;2023-04-03T03:43:26;-1.00;1.00
13673;DHT22;6909;52.202;9.876;2023-04-03T03:45:54;-1.00;1.00
13673;DHT22;6909;52.202;9.876;2023-04-03T03:48:21;-0.90;1.00
13673;DHT22;6909;52.202;9.876;2023-04-03T03:50:50;-1.00;1.00
13673;DHT22;6909;52.202;9.876;2023-04-03T03:53:16;-1.10;1.00
13673;DHT22;6909;52.202;9.876;2023-04-03T03:55:44;-1.10;1.00
13673;DHT22;6909;52.202;9.876;2023-04-03T03:58:11;-1.20;1.00
13673;DHT22;6909;52.202;9.876;2023-04-03T04:00:38;-1.30;1.00
13673;DHT22;6909;52.202;9.876;2023-04-03T04:03:04;-1.30;1.00
13673;DHT22;6909;52.202;9.876;2023-04-03T04:05:31;-1.40;40.70
13673;DHT22;6909;52.202;9.876;2023-04-03T04:07:59;-1.40;99.90
13673;DHT22;6909;52.202;9.876;2023-04-03T04:10:26;-1.40;99.90
13673;DHT22;6909;52.202;9.876;2023-04-03T04:12:52;-1.40;99.90
13673;DHT22;6909;52.202;9.876;2023-04-03T04:15:19;-1.30;99.90
13673;DHT22;6909;52.202;9.876;2023-04-03T04:17:47;-1.30;99.90
13673;DHT22;6909;52.202;9.876;2023-04-03T04:20:14;-1.40;99.90
13673;DHT22;6909;52.202;9.876;2023-04-03T04:22:40;-1.40;99.90
13673;DHT22;6909;52.202;9.876;2023-04-03T04:25:09;-1.40;99.90
13673;DHT22;6909;52.202;9.876;2023-04-03T04:27:35;-1.50;99.90
13673;DHT22;6909;52.202;9.876;2023-04-03T04:30:02;-1.70;99.90
13673;DHT22;6909;52.202;9.876;2023-04-03T04:32:30;-1.80;99.90
13673;DHT22;6909;52.202;9.876;2023-04-03T04:34:56;-1.80;99.90
13673;DHT22;6909;52.202;9.876;2023-04-03T04:37:23;-1.90;99.90
13673;DHT22;6909;52.202;9.876;2023-04-03T04:39:50;-2.00;99.90
13673;DHT22;6909;52.202;9.876;2023-04-03T04:42:17;-2.00;1.00
13673;DHT22;6909;52.202;9.876;2023-04-03T04:44:44;-1.90;1.00
13673;DHT22;6909;52.202;9.876;2023-04-03T04:47:11;-1.80;1.00
13673;DHT22;6909;52.202;9.876;2023-04-03T04:49:38;-1.60;1.00
13673;DHT22;6909;52.202;9.876;2023-04-03T04:52:04;-1.50;1.00
13673;DHT22;6909;52.202;9.876;2023-04-03T04:54:32;-1.50;1.00
13673;DHT22;6909;52.202;9.876;2023-04-03T04:56:58;-1.40;1.00
13673;DHT22;6909;52.202;9.876;2023-04-03T04:59:26;-1.40;1.00
13673;DHT22;6909;52.202;9.876;2023-04-03T05:01:53;-1.40;1.00
13673;DHT22;6909;52.202;9.876;2023-04-03T05:04:20;-1.40;1.00
13673;DHT22;6909;52.202;9.876;2023-04-03T05:06:46;-1.40;1.00
13673;DHT22;6909;52.202;9.876;2023-04-03T05:09:13;-1.40;1.00
13673;DHT22;6909;52.202;9.876;2023-04-03T05:11:40;-1.30;1.00
13673;DHT22;6909;52.202;9.876;2023-04-03T05:14:07;-1.30;1.00
13673;DHT22;6909;52.202;9.876;2023-04-03T05:16:36;-1.30;1.00
13673;DHT22;6909;52.202;9.876;2023-04-03T05:19:03;-1.20;1.00
13673;DHT22;6909;52.202;9.876;2023-04-03T05:21:30;-1.20;1.00
13673;DHT22;6909;52.202;9.876;2023-04-03T05:23:57;-1.20;1.00
13673;DHT22;6909;52.202;9.876;2023-04-03T05:26:24;-1.20;1.00
13673;DHT22;6909;52.202;9.876;2023-04-03T05:28:52;-1.20;1.00
13673;DHT22;6909;52.202;9.876;2023-04-03T05:31:18;-1.20;1.00
13673;DHT22;6909;52.202;9.876;2023-04-03T05:33:47;-0.20;1.00
13673;DHT22;6909;52.202;9.876;2023-04-03T05:36:14;1.10;99.90
13673;DHT22;6909;52.202;9.876;2023-04-03T05:38:41;2.80;99.90
13673;DHT22;6909;52.202;9.876;2023-04-03T05:41:08;4.60;99.90
13673;DHT22;6909;52.202;9.876;2023-04-03T05:43:35;6.20;1.00
13673;DHT22;6909;52.202;9.876;2023-04-03T05:46:03;6.10;85.10
13673;DHT22;6909;52.202;9.876;2023-04-03T05:48:30;6.70;1.00
13673;DHT22;6909;52.202;9.876;2023-04-03T05:50:58;7.70;1.00
13673;DHT22;6909;52.202;9.876;2023-04-03T05:53:27;7.90;1.00
13673;DHT22;6909;52.202;9.876;2023-04-03T05:55:54;8.50;1.00
13673;DHT22;6909;52.202;9.876;2023-04-03T05:58:21;8.70;1.00
13673;DHT22;6909;52.202;9.876;2023-04-03T06:00:47;8.10;99.90
13673;DHT22;6909;52.202;9.876;2023-04-03T06:03:14;7.50;99.90
13673;DHT22;6909;52.202;9.876;2023-04-03T06:05:42;6.30;1.00
13673;DHT22;6909;52.202;9.876;2023-04-03T06:08:10;6.00;1.00
13673;DHT22;6909;52.202;9.876;2023-04-03T06:10:37;5.70;1.00
13673;DHT22;6909;52.202;9.876;2023-04-03T06:13:03;5.20;1.00
13673;DHT22;6909;52.202;9.876;2023-04-03T06:15:30;5.30;1.00
13673;DHT22;6909;52.202;9.876;2023-04-03T06:17:57;5.60;1.00
13673;DHT22;6909;52.202;9.876;2023-04-03T06:20:24;6.00;1.00
13673;DHT22;6909;52.202;9.876;2023-04-03T06:22:53;6.20;1.00
13673;DHT22;6909;52.202;9.876;2023-04-03T06:25:21;6.40;1.00
13673;DHT22;6909;52.202;9.876;2023-04-03T06:27:48;6.50;1.00
13673;DHT22;6909;52.202;9.876;2023-04-03T06:30:15;7.00;1.00
13673;DHT22;6909;52.202;9.876;2023-04-03T06:32:41;7.40;1.00
13673;DHT22;6909;52.202;9.876;2023-04-03T06:35:09;7.60;1.00
13673;DHT22;6909;52.202;9.876;2023-04-03T06:37:36;7.10;1.00
13673;DHT22;6909;52.202;9.876;2023-04-03T06:40:03;8.00;1.00
13673;DHT22;6909;52.202;9.876;2023-04-03T06:42:32;7.90;1.00
13673;DHT22;6909;52.202;9.876;2023-04-03T06:44:58;7.70;1.00
13673;DHT22;6909;52.202;9.876;2023-04-03T06:47:25;8.20;1.00
13673;DHT22;6909;52.202;9.876;2023-04-03T06:49:52;9.60;1.00
13673;DHT22;6909;52.202;9.876;2023-04-03T06:52:19;9.70;1.00
13673;DHT22;6909;52.202;9.876;2023-04-03T06:54:46;8.30;1.00
13673;DHT22;6909;52.202;9.876;2023-04-03T06:57:12;10.20;1.00
13673;DHT22;6909;52.202;9.876;2023-04-03T06:59:41;11.30;1.00
13673;DHT22;6909;52.202;9.876;2023-04-03T07:02:10;12.20;1.00
13673;DHT22;6909;52.202;9.876;2023-04-03T07:04:38;10.60;1.00
13673;DHT22;6909;52.202;9.876;2023-04-03T07:07:04;11.70;1.00
13673;DHT22;6909;52.202;9.876;2023-04-03T07:09:31;11.50;1.00
13673;DHT22;6909;52.202;9.876;2023-04-03T07:11:58;12.20;1.00
13673;DHT22;6909;52.202;9.876;2023-04-03T07:14:24;10.30;99.90
13673;DHT22;6909;52.202;9.876;2023-04-03T07:16:52;10.40;99.90
13673;DHT22;6909;52.202;9.876;2023-04-03T07:19:19;8.80;99.90
13673;DHT22;6909;52.202;9.876;2023-04-03T07:21:47;7.90;99.90
13673;DHT22;6909;52.202;9.876;2023-04-03T07:24:13;7.60;99.90
13673;DHT22;6909;52.202;9.876;2023-04-03T07:26:40;8.00;99.90
13673;DHT22;6909;52.202;9.876;2023-04-03T07:29:07;9.40;99.90
13673;DHT22;6909;52.202;9.876;2023-04-03T07:31:34;9.50;99.90
13673;DHT22;6909;52.202;9.876;2023-04-03T07:34:02;7.80;99.90
13673;DHT22;6909;52.202;9.876;2023-04-03T07:36:29;8.80;99.90
13673;DHT22;6909;52.202;9.876;2023-04-03T07:38:58;7.90;99.90
13673;DHT22;6909;52.202;9.876;2023-04-03T07:41:25;9.90;99.90
13673;DHT22;6909;52.202;9.876;2023-04-03T07:43:52;10.20;99.90
13673;DHT22;6909;52.202;9.876;2023-04-03T07:46:19;9.70;99.90
13673;DHT22;6909;52.202;9.876;2023-04-03T07:48:48;8.20;99.90
13673;DHT22;6909;52.202;9.876;2023-04-03T07:51:16;10.50;99.90
13673;DHT22;6909;52.202;9.876;2023-04-03T07:53:42;11.90;99.90
13673;DHT22;6909;52.202;9.876;2023-04-03T07:56:09;10.70;99.90
13673;DHT22;6909;52.202;9.876;2023-04-03T07:58:36;12.30;99.90
13673;DHT22;6909;52.202;9.876;2023-04-03T08:01:03;11.90;99.90
13673;DHT22;6909;52.202;9.876;2023-04-03T08:03:31;11.50;99.90
13673;DHT22;6909;52.202;9.876;2023-04-03T08:06:02;11.90;99.90
13673;DHT22;6909;52.202;9.876;2023-04-03T08:08:31;10.20;99.90
13673;DHT22;6909;52.202;9.876;2023-04-03T08:10:59;9.50;96.80
13673;DHT22;6909;52.202;9.876;2023-04-03T08:13:28;8.60;65.70
13673;DHT22;6909;52.202;9.876;2023-04-03T08:15:55;8.50;66.40
13673;DHT22;6909;52.202;9.876;2023-04-03T08:18:22;7.60;30.00
13673;DHT22;6909;52.202;9.876;2023-04-03T08:20:50;7.20;21.90
13673;DHT22;6909;52.202;9.876;2023-04-03T08:23:17;7.10;24.10
13673;DHT22;6909;52.202;9.876;2023-04-03T08:25:45;8.00;66.00
13673;DHT22;6909;52.202;9.876;2023-04-03T08:28:12;9.10;98.40
13673;DHT22;6909;52.202;9.876;2023-04-03T08:30:40;8.00;41.40
13673;DHT22;6909;52.202;9.876;2023-04-03T08:33:07;7.80;37.40
13673;DHT22;6909;52.202;9.876;2023-04-03T08:35:38;7.90;51.00
13673;DHT22;6909;52.202;9.876;2023-04-03T08:38:06;7.60;32.80
13673;DHT22;6909;52.202;9.876;2023-04-03T08:40:32;7.30;25.20
13673;DHT22;6909;52.202;9.876;2023-04-03T08:43:11;7.10;22.40
13673;DHT22;6909;52.202;9.876;2023-04-03T08:45:45;6.20;1.00
13673;DHT22;6909;52.202;9.876;2023-04-03T08:48:15;6.20;7.70
13673;DHT22;6909;52.202;9.876;2023-04-03T08:50:46;6.20;11.30
13673;DHT22;6909;52.202;9.876;2023-04-03T08:53:16;6.10;8.00
13673;DHT22;6909;52.202;9.876;2023-04-03T08:55:47;6.00;21.20
13673;DHT22;6909;52.202;9.876;2023-04-03T08:58:18;5.80;9.00
13673;DHT22;6909;52.202;9.876;2023-04-03T09:00:47;5.70;14.80
13673;DHT22;6909;52.202;9.876;2023-04-03T09:03:17;5.40;1.10
13673;DHT22;6909;52.202;9.876;2023-04-03T09:05:47;5.90;20.40
13673;DHT22;6909;52.202;9.876;2023-04-03T09:08:22;6.00;3.90
13673;DHT22;6909;52.202;9.876;2023-04-03T09:10:54;5.70;1.00
13673;DHT22;6909;52.202;9.876;2023-04-03T09:13:30;6.00;1.00
13673;DHT22;6909;52.202;9.876;2023-04-03T09:16:02;5.30;1.00
13673;DHT22;6909;52.202;9.876;2023-04-03T09:18:32;4.90;1.00
13673;DHT22;6909;52.202;9.876;2023-04-03T09:21:11;5.00;1.00
13673;DHT22;6909;52.202;9.876;2023-04-03T09:23:44;5.10;1.00
13673;DHT22;6909;52.202;9.876;2023-04-03T09:26:15;5.20;1.00
13673;DHT22;6909;52.202;9.876;2023-04-03T09:28:45;5.10;1.00
13673;DHT22;6909;52.202;9.876;2023-04-03T09:31:19;5.30;1.00
13673;DHT22;6909;52.202;9.876;2023-04-03T09:33:47;5.80;1.00
13673;DHT22;6909;52.202;9.876;2023-04-03T09:36:37;5.70;1.00
13673;DHT22;6909;52.202;9.876;2023-04-03T09:39:05;5.80;1.00
13673;DHT22;6909;52.202;9.876;2023-04-03T09:41:35;6.50;1.00
13673;DHT22;6909;52.202;9.876;2023-04-03T09:44:20;6.30;1.00
13673;DHT22;6909;52.202;9.876;2023-04-03T09:46:47;5.90;1.00
13673;DHT22;6909;52.202;9.876;2023-04-03T09:49:13;6.20;1.00
13673;DHT22;6909;52.202;9.876;2023-04-03T09:51:40;6.20;1.00
13673;DHT22;6909;52.202;9.876;2023-04-03T09:54:30;6.20;1.00
13673;DHT22;6909;52.202;9.876;2023-04-03T09:56:57;5.80;1.00
13673;DHT22;6909;52.202;9.876;2023-04-03T09:59:29;5.30;1.00
13673;DHT22;6909;52.202;9.876;2023-04-03T10:01:58;5.50;1.00
13673;DHT22;6909;52.202;9.876;2023-04-03T10:04:25;5.40;1.00
13673;DHT22;6909;52.202;9.876;2023-04-03T10:07:02;5.70;1.00
13673;DHT22;6909;52.202;9.876;2023-04-03T10:09:31;6.10;1.00
13673;DHT22;6909;52.202;9.876;2023-04-03T10:12:00;5.90;1.00
13673;DHT22;6909;52.202;9.876;2023-04-03T10:14:31;5.40;1.00
13673;DHT22;6909;52.202;9.876;2023-04-03T10:17:04;5.50;1.00
13673;DHT22;6909;52.202;9.876;2023-04-03T10:19:40;5.30;1.00
13673;DHT22;6909;52.202;9.876;2023-04-03T10:22:22;5.50;1.00
13673;DHT22;6909;52.202;9.876;2023-04-03T10:25:02;5.40;1.00
13673;DHT22;6909;52.202;9.876;2023-04-03T10:27:43;5.40;1.00
13673;DHT22;6909;52.202;9.876;2023-04-03T10:30:21;5.60;1.00
13673;DHT22;6909;52.202;9.876;2023-04-03T10:33:01;5.60;1.00
13673;DHT22;6909;52.202;9.876;2023-04-03T10:35:39;6.20;1.00
13673;DHT22;6909;52.202;9.876;2023-04-03T10:38:15;6.80;1.00
13673;DHT22;6909;52.202;9.876;2023-04-03T10:40:49;7.20;1.00
13673;DHT22;6909;52.202;9.876;2023-04-03T10:43:23;6.80;1.00
13673;DHT22;6909;52.202;9.876;2023-04-03T10:46:00;6.50;1.00
13673;DHT22;6909;52.202;9.876;2023-04-03T10:51:40;6.50;1.00
13673;DHT22;6909;52.202;9.876;2023-04-03T10:54:11;6.30;1.00
13673;DHT22;6909;52.202;9.876;2023-04-03T10:56:40;6.40;1.00
13673;DHT22;6909;52.202;9.876;2023-04-03T10:59:16;6.00;1.00
13673;DHT22;6909;52.202;9.876;2023-04-03T11:01:47;6.20;1.00
13673;DHT22;6909;52.202;9.876;2023-04-03T11:04:16;6.30;1.00
13673;DHT22;6909;52.202;9.876;2023-04-03T11:06:48;5.90;1.00
13673;DHT22;6909;52.202;9.876;2023-04-03T11:09:21;5.80;1.00
13673;DHT22;6909;52.202;9.876;2023-04-03T11:11:53;5.90;1.00
13673;DHT22;6909;52.202;9.876;2023-04-03T11:14:26;5.70;1.00
13673;DHT22;6909;52.202;9.876;2023-04-03T11:17:02;6.00;1.00
13673;DHT22;6909;52.202;9.876;2023-04-03T11:19:35;6.10;1.00
13673;DHT22;6909;52.202;9.876;2023-04-03T11:22:09;6.00;1.00
13673;DHT22;6909;52.202;9.876;2023-04-03T11:24:40;6.00;1.00
13673;DHT22;6909;52.202;9.876;2023-04-03T11:27:15;5.70;1.00
13673;DHT22;6909;52.202;9.876;2023-04-03T11:29:44;5.50;1.00
13673;DHT22;6909;52.202;9.876;2023-04-03T11:32:32;5.40;1.00
13673;DHT22;6909;52.202;9.876;2023-04-03T11:35:05;5.50;1.00
13673;DHT22;6909;52.202;9.876;2023-04-03T11:37:36;5.70;1.00
13673;DHT22;6909;52.202;9.876;2023-04-03T11:40:06;5.90;1.00
13673;DHT22;6909;52.202;9.876;2023-04-03T11:42:37;5.80;1.00
13673;DHT22;6909;52.202;9.876;2023-04-03T11:48:45;5.70;1.00
13673;DHT22;6909;52.202;9.876;2023-04-03T11:51:39;5.60;1.00
13673;DHT22;6909;52.202;9.876;2023-04-03T11:54:35;5.80;1.00
13673;DHT22;6909;52.202;9.876;2023-04-03T11:57:42;5.90;1.00
13673;DHT22;6909;52.202;9.876;2023-04-03T12:00:45;6.20;1.00
13673;DHT22;6909;52.202;9.876;2023-04-03T12:09:28;6.90;1.00
13673;DHT22;6909;52.202;9.876;2023-04-03T12:11:56;7.10;1.00
13673;DHT22;6909;52.202;9.876;2023-04-03T12:14:25;6.60;1.00
13673;DHT22;6909;52.202;9.876;2023-04-03T12:16:53;6.30;1.00
13673;DHT22;6909;52.202;9.876;2023-04-03T12:19:36;6.00;1.00
13673;DHT22;6909;52.202;9.876;2023-04-03T12:22:14;5.80;1.00
13673;DHT22;6909;52.202;9.876;2023-04-03T12:24:44;5.80;1.00
13673;DHT22;6909;52.202;9.876;2023-04-03T12:27:30;5.60;1.00
13673;DHT22;6909;52.202;9.876;2023-04-03T12:30:14;6.00;1.00
13673;DHT22;6909;52.202;9.876;2023-04-03T12:33:13;6.10;1.00
13673;DHT22;6909;52.202;9.876;2023-04-03T12:35:49;6.10;1.00
13673;DHT22;6909;52.202;9.876;2023-04-03T12:38:33;6.30;1.00
13673;DHT22;6909;52.202;9.876;2023-04-03T12:41:23;6.60;1.00
13673;DHT22;6909;52.202;9.876;2023-04-03T12:44:15;6.50;1.00
13673;DHT22;6909;52.202;9.876;2023-04-03T12:46:48;6.40;1.00
13673;DHT22;6909;52.202;9.876;2023-04-03T12:49:26;6.20;1.00
13673;DHT22;6909;52.202;9.876;2023-04-03T12:51:56;6.40;1.00
13673;DHT22;6909;52.202;9.876;2023-04-03T12:54:29;6.70;1.00
13673;DHT22;6909;52.202;9.876;2023-04-03T12:57:20;6.70;1.00
13673;DHT22;6909;52.202;9.876;2023-04-03T12:59:47;6.60;1.00
13673;DHT22;6909;52.202;9.876;2023-04-03T13:02:28;6.50;1.00
13673;DHT22;6909;52.202;9.876;2023-04-03T13:04:57;6.40;1.00
13673;DHT22;6909;52.202;9.876;2023-04-03T13:07:27;6.10;1.00
13673;DHT22;6909;52.202;9.876;2023-04-03T13:10:02;6.00;1.00
13673;DHT22;6909;52.202;9.876;2023-04-03T13:12:31;6.20;1.00
13673;DHT22;6909;52.202;9.876;2023-04-03T13:15:00;6.70;1.00
13673;DHT22;6909;52.202;9.876;2023-04-03T13:17:30;6.60;1.00
13673;DHT22;6909;52.202;9.876;2023-04-03T13:20:10;6.80;1.00
13673;DHT22;6909;52.202;9.876;2023-04-03T13:22:39;6.70;1.00
13673;DHT22;6909;52.202;9.876;2023-04-03T13:25:13;6.50;1.00
13673;DHT22;6909;52.202;9.876;2023-04-03T13:27:43;6.40;1.00
13673;DHT22;6909;52.202;9.876;2023-04-03T13:30:23;6.60;1.00
13673;DHT22;6909;52.202;9.876;2023-04-03T13:32:53;7.00;1.00
13673;DHT22;6909;52.202;9.876;2023-04-03T13:35:32;6.80;1.00
13673;DHT22;6909;52.202;9.876;2023-04-03T13:38:02;6.60;1.00
13673;DHT22;6909;52.202;9.876;2023-04-03T13:40:30;6.60;1.00
13673;DHT22;6909;52.202;9.876;2023-04-03T13:43:05;6.70;1.00
13673;DHT22;6909;52.202;9.876;2023-04-03T13:45:33;6.40;1.00
13673;DHT22;6909;52.202;9.876;2023-04-03T13:48:10;6.40;1.00
13673;DHT22;6909;52.202;9.876;2023-04-03T13:50:53;6.40;1.00
13673;DHT22;6909;52.202;9.876;2023-04-03T13:53:21;6.30;1.00
13673;DHT22;6909;52.202;9.876;2023-04-03T13:55:56;6.20;1.00
13673;DHT22;6909;52.202;9.876;2023-04-03T13:58:26;6.10;1.00
13673;DHT22;6909;52.202;9.876;2023-04-03T14:00:56;6.30;1.00
13673;DHT22;6909;52.202;9.876;2023-04-03T14:03:30;6.30;1.00
13673;DHT22;6909;52.202;9.876;2023-04-03T14:05:57;6.60;1.00
13673;DHT22;6909;52.202;9.876;2023-04-03T14:08:24;6.70;1.00
13673;DHT22;6909;52.202;9.876;2023-04-03T14:10:51;6.80;1.00
13673;DHT22;6909;52.202;9.876;2023-04-03T14:13:19;6.80;1.00
13673;DHT22;6909;52.202;9.876;2023-04-03T14:15:48;7.10;1.00
13673;DHT22;6909;52.202;9.876;2023-04-03T14:18:18;7.30;1.00
13673;DHT22;6909;52.202;9.876;2023-04-03T14:20:46;7.00;1.00
13673;DHT22;6909;52.202;9.876;2023-04-03T14:23:13;7.10;1.00
13673;DHT22;6909;52.202;9.876;2023-04-03T14:25:40;6.70;1.00
13673;DHT22;6909;52.202;9.876;2023-04-03T14:28:15;6.60;1.00
13673;DHT22;6909;52.202;9.876;2023-04-03T14:30:42;6.50;1.00
13673;DHT22;6909;52.202;9.876;2023-04-03T14:33:14;6.40;1.00
13673;DHT22;6909;52.202;9.876;2023-04-03T14:35:41;6.50;1.00
13673;DHT22;6909;52.202;9.876;2023-04-03T14:38:21;6.70;1.00
13673;DHT22;6909;52.202;9.876;2023-04-03T14:40:49;7.10;1.00
13673;DHT22;6909;52.202;9.876;2023-04-03T14:43:16;6.90;1.00
13673;DHT22;6909;52.202;9.876;2023-04-03T14:45:43;6.80;1.00
13673;DHT22;6909;52.202;9.876;2023-04-03T14:48:16;6.60;1.00
13673;DHT22;6909;52.202;9.876;2023-04-03T14:50:43;6.40;1.00
13673;DHT22;6909;52.202;9.876;2023-04-03T14:53:12;6.20;1.00
13673;DHT22;6909;52.202;9.876;2023-04-03T14:55:40;6.10;1.00
13673;DHT22;6909;52.202;9.876;2023-04-03T14:58:11;6.20;1.00
13673;DHT22;6909;52.202;9.876;2023-04-03T15:00:38;6.40;1.00
13673;DHT22;6909;52.202;9.876;2023-04-03T15:03:05;6.70;1.00
13673;DHT22;6909;52.202;9.876;2023-04-03T15:05:35;6.90;1.00
13673;DHT22;6909;52.202;9.876;2023-04-03T15:08:02;6.70;1.00
13673;DHT22;6909;52.202;9.876;2023-04-03T15:10:30;6.60;1.00
13673;DHT22;6909;52.202;9.876;2023-04-03T15:12:57;6.50;1.00
13673;DHT22;6909;52.202;9.876;2023-04-03T15:15:24;6.70;1.00
13673;DHT22;6909;52.202;9.876;2023-04-03T15:17:55;6.60;1.00
13673;DHT22;6909;52.202;9.876;2023-04-03T15:20:25;6.50;1.00
13673;DHT22;6909;52.202;9.876;2023-04-03T15:22:53;6.80;1.00
13673;DHT22;6909;52.202;9.876;2023-04-03T15:25:21;7.00;1.00
13673;DHT22;6909;52.202;9.876;2023-04-03T15:27:48;7.10;1.00
13673;DHT22;6909;52.202;9.876;2023-04-03T15:30:17;6.80;1.00
13673;DHT22;6909;52.202;9.876;2023-04-03T15:32:45;6.60;1.00
13673;DHT22;6909;52.202;9.876;2023-04-03T15:35:12;6.50;1.00
13673;DHT22;6909;52.202;9.876;2023-04-03T15:37:38;6.20;1.00
13673;DHT22;6909;52.202;9.876;2023-04-03T15:40:08;6.20;1.00
13673;DHT22;6909;52.202;9.876;2023-04-03T15:42:34;6.30;1.00
13673;DHT22;6909;52.202;9.876;2023-04-03T15:45:01;6.50;1.00
13673;DHT22;6909;52.202;9.876;2023-04-03T15:47:28;6.70;1.00
13673;DHT22;6909;52.202;9.876;2023-04-03T15:49:55;6.90;1.00
13673;DHT22;6909;52.202;9.876;2023-04-03T15:52:22;7.10;1.00
13673;DHT22;6909;52.202;9.876;2023-04-03T15:54:52;7.20;1.00
13673;DHT22;6909;52.202;9.876;2023-04-03T15:57:20;6.90;1.00
13673;DHT22;6909;52.202;9.876;2023-04-03T15:59:51;6.60;1.00
13673;DHT22;6909;52.202;9.876;2023-04-03T16:02:17;6.60;1.00
13673;DHT22;6909;52.202;9.876;2023-04-03T16:04:44;6.60;1.00
13673;DHT22;6909;52.202;9.876;2023-04-03T16:07:11;6.60;1.00
13673;DHT22;6909;52.202;9.876;2023-04-03T16:09:38;6.60;1.00
13673;DHT22;6909;52.202;9.876;2023-04-03T16:12:05;6.50;1.00
13673;DHT22;6909;52.202;9.876;2023-04-03T16:14:33;6.50;1.00
13673;DHT22;6909;52.202;9.876;2023-04-03T16:17:00;6.40;1.00
13673;DHT22;6909;52.202;9.876;2023-04-03T16:19:27;6.40;1.00
13673;DHT22;6909;52.202;9.876;2023-04-03T16:21:55;6.40;1.00
13673;DHT22;6909;52.202;9.876;2023-04-03T16:24:22;6.40;1.00
13673;DHT22;6909;52.202;9.876;2023-04-03T16:26:49;6.30;1.00
13673;DHT22;6909;52.202;9.876;2023-04-03T16:29:15;6.30;1.00
13673;DHT22;6909;52.202;9.876;2023-04-03T16:31:45;6.30;1.00
13673;DHT22;6909;52.202;9.876;2023-04-03T16:34:12;6.40;1.00
13673;DHT22;6909;52.202;9.876;2023-04-03T16:36:38;6.50;1.00
13673;DHT22;6909;52.202;9.876;2023-04-03T16:39:05;6.50;1.00
13673;DHT22;6909;52.202;9.876;2023-04-03T16:41:34;6.50;1.00
13673;DHT22;6909;52.202;9.876;2023-04-03T16:44:01;6.50;1.00
13673;DHT22;6909;52.202;9.876;2023-04-03T16:46:28;6.30;1.00
13673;DHT22;6909;52.202;9.876;2023-04-03T16:48:56;6.20;1.00
13673;DHT22;6909;52.202;9.876;2023-04-03T16:51:22;6.10;1.00
13673;DHT22;6909;52.202;9.876;2023-04-03T16:53:49;6.00;1.00
13673;DHT22;6909;52.202;9.876;2023-04-03T16:56:16;5.90;1.00